createdAt,value
2022-08-30T00:01:22.480Z,77.84
2022-08-30T00:03:50.497Z,75.99
2022-08-30T00:06:20.925Z,77.58
2022-08-30T00:08:50.059Z,76.75
2022-08-30T00:11:21.424Z,75.73
2022-08-30T00:13:53.159Z,75.52
2022-08-30T00:16:23.525Z,76.65
2022-08-30T00:18:52.240Z,76.79
2022-08-30T00:21:20.465Z,77.25
2022-08-30T00:23:48.202Z,77.77
2022-08-30T00:26:15.912Z,77.04
2022-08-30T00:28:43.696Z,77.41
2022-08-30T00:31:15.261Z,77.49
2022-08-30T00:33:44.870Z,76.94
2022-08-30T00:36:12.681Z,76.64
2022-08-30T00:38:40.409Z,75.23
2022-08-30T00:41:08.721Z,77.04
2022-08-30T00:43:37.135Z,76.51
2022-08-30T00:46:08.169Z,76.71
2022-08-30T00:48:41.576Z,77.44
2022-08-30T00:51:10.430Z,77.91
2022-08-30T00:53:42.094Z,78.61
2022-08-30T00:56:11.181Z,78.28
2022-08-30T00:58:43.373Z,78.61
2022-08-30T01:01:11.815Z,78.42
2022-08-30T01:03:43.316Z,77.85
2022-08-30T01:06:11.789Z,78.72
2022-08-30T01:08:39.727Z,78.85
2022-08-30T01:11:09.458Z,79.86
2022-08-30T01:13:37.303Z,79.30
2022-08-30T01:16:06.140Z,79.08
2022-08-30T01:18:34.168Z,79.90
2022-08-30T01:21:10.334Z,79.70
2022-08-30T01:23:44.115Z,80.05
2022-08-30T01:26:12.345Z,78.23
2022-08-30T01:28:41.072Z,78.03
2022-08-30T01:31:09.399Z,78.10
2022-08-30T01:33:38.481Z,77.06
2022-08-30T01:36:10.689Z,77.72
2022-08-30T01:38:43.971Z,77.24
2022-08-30T01:41:15.930Z,77.30
2022-08-30T01:43:43.891Z,76.78
2022-08-30T01:46:12.300Z,76.43
2022-08-30T01:48:41.250Z,77.73
2022-08-30T01:51:14.268Z,77.86
2022-08-30T01:53:45.379Z,78.83
2022-08-30T01:56:14.868Z,79.66
2022-08-30T01:58:43.599Z,79.51
2022-08-30T02:01:13.931Z,79.88
2022-08-30T02:03:44.218Z,79.58
2022-08-30T02:06:14.561Z,78.86
2022-08-30T02:08:43.845Z,79.56
2022-08-30T02:11:12.444Z,78.71
2022-08-30T02:13:41.898Z,78.56
2022-08-30T02:16:11.555Z,78.23
2022-08-30T02:18:40.497Z,80.22
2022-08-30T02:21:09.339Z,79.81
2022-08-30T02:23:37.698Z,80.58
2022-08-30T02:26:06.954Z,80.04
2022-08-30T02:28:34.737Z,80.07
2022-08-30T02:31:10.986Z,80.27
2022-08-30T02:33:40.546Z,80.23
2022-08-30T02:36:09.453Z,83.40
2022-08-30T02:38:37.548Z,83.06
2022-08-30T02:41:07.006Z,82.22
2022-08-30T02:43:34.765Z,80.59
2022-08-30T02:46:02.619Z,80.86
2022-08-30T02:48:30.419Z,80.44
2022-08-30T02:50:58.355Z,78.74
2022-08-30T02:53:26.101Z,80.74
2022-08-30T02:55:54.763Z,81.91
2022-08-30T02:58:23.846Z,81.89
2022-08-30T03:00:51.782Z,81.87
2022-08-30T03:03:20.872Z,81.22
2022-08-30T03:05:48.811Z,80.62
2022-08-30T03:08:16.633Z,80.95
2022-08-30T03:10:44.349Z,80.55
2022-08-30T03:13:12.161Z,80.70
2022-08-30T03:15:42.254Z,83.44
2022-08-30T03:18:10.914Z,81.78
2022-08-30T03:20:39.399Z,82.43
2022-08-30T03:23:08.199Z,82.23
2022-08-30T03:25:36.201Z,81.59
2022-08-30T03:28:04.470Z,81.02
2022-08-30T03:30:32.717Z,80.47
2022-08-30T03:33:02.385Z,81.91
2022-08-30T03:35:33.308Z,81.50
2022-08-30T03:38:01.383Z,80.17
2022-08-30T03:40:29.384Z,80.71
2022-08-30T03:42:57.756Z,81.79
2022-08-30T03:45:25.745Z,80.14
2022-08-30T03:47:53.542Z,79.64
2022-08-30T03:50:22.703Z,80.37
2022-08-30T03:52:50.478Z,80.17
2022-08-30T03:55:18.381Z,79.53
2022-08-30T03:57:46.128Z,79.18
2022-08-30T04:00:17.047Z,79.86
2022-08-30T04:02:44.886Z,78.59
2022-08-30T04:05:14.152Z,78.16
2022-08-30T04:07:47.819Z,78.45
2022-08-30T04:10:15.588Z,78.94
2022-08-30T04:12:47.390Z,77.92
2022-08-30T04:15:17.742Z,77.75
2022-08-30T04:17:45.795Z,78.08
2022-08-30T04:20:13.699Z,78.72
2022-08-30T04:22:42.503Z,79.18
2022-08-30T04:25:14.169Z,78.98
2022-08-30T04:27:44.129Z,77.83
2022-08-30T04:30:13.445Z,78.64
2022-08-30T04:32:41.215Z,78.39
2022-08-30T04:35:09.754Z,77.65
2022-08-30T04:37:38.360Z,77.78
2022-08-30T04:40:07.639Z,78.12
2022-08-30T04:42:36.989Z,77.84
2022-08-30T04:45:06.975Z,78.09
2022-08-30T04:47:34.739Z,77.77
2022-08-30T04:50:03.483Z,78.29
2022-08-30T04:52:31.215Z,78.11
2022-08-30T04:55:00.093Z,78.43
2022-08-30T04:57:29.178Z,79.48
2022-08-30T04:59:58.332Z,79.64
2022-08-30T05:02:26.248Z,78.83
2022-08-30T05:05:11.269Z,78.59
2022-08-30T05:07:42.050Z,79.30
2022-08-30T05:10:11.639Z,80.29
2022-08-30T05:12:39.720Z,79.06
2022-08-30T05:15:10.410Z,78.45
2022-08-30T05:17:38.909Z,77.66
2022-08-30T05:20:11.293Z,78.32
2022-08-30T05:22:39.851Z,78.60
2022-08-30T05:25:08.533Z,78.65
2022-08-30T05:27:37.714Z,78.36
2022-08-30T05:30:06.400Z,78.73
2022-08-30T05:32:35.482Z,77.78
2022-08-30T05:35:06.530Z,78.98
2022-08-30T05:37:34.390Z,79.86
2022-08-30T05:40:02.348Z,80.03
2022-08-30T05:42:30.553Z,79.49
2022-08-30T05:44:58.372Z,79.71
2022-08-30T05:47:26.117Z,80.12
2022-08-30T05:49:55.249Z,78.43
2022-08-30T05:52:23.057Z,80.78
2022-08-30T05:54:55.647Z,79.44
2022-08-30T05:57:23.425Z,80.74
2022-08-30T05:59:51.187Z,80.51
2022-08-30T06:02:18.997Z,81.55
2022-08-30T06:04:46.752Z,81.79
2022-08-30T06:07:17.207Z,80.98
2022-08-30T06:09:47.516Z,80.39
2022-08-30T06:12:15.276Z,82.42
2022-08-30T06:14:43.023Z,82.42
2022-08-30T06:17:10.793Z,82.90
2022-08-30T06:19:38.538Z,82.42
2022-08-30T06:22:06.408Z,81.02
2022-08-30T06:24:56.449Z,80.70
2022-08-30T06:27:23.948Z,82.23
2022-08-30T06:29:52.335Z,81.62
2022-08-30T06:32:20.341Z,82.54
2022-08-30T06:34:48.293Z,81.29
2022-08-30T06:37:29.170Z,80.24
2022-08-30T06:39:59.856Z,82.08
2022-08-30T06:42:32.021Z,81.87
2022-08-30T06:45:01.062Z,81.38
2022-08-30T06:47:29.599Z,80.62
2022-08-30T06:49:58.718Z,79.68
2022-08-30T06:52:26.466Z,80.00
2022-08-30T06:54:55.299Z,80.78
2022-08-30T06:57:24.417Z,80.31
2022-08-30T06:59:57.286Z,80.42
2022-08-30T07:02:26.016Z,79.24
2022-08-30T07:04:53.813Z,78.97
2022-08-30T07:07:21.965Z,79.73
2022-08-30T07:09:50.390Z,78.76
2022-08-30T07:12:18.228Z,78.87
2022-08-30T07:14:47.329Z,78.42
2022-08-30T07:17:34.834Z,78.07
2022-08-30T07:20:03.615Z,77.28
2022-08-30T07:22:31.350Z,77.98
2022-08-30T07:24:59.122Z,78.58
2022-08-30T07:27:26.887Z,77.21
2022-08-30T07:29:56.018Z,76.37
2022-08-30T07:32:23.785Z,74.88
2022-08-30T07:34:51.805Z,75.35
2022-08-30T07:37:19.582Z,74.83
2022-08-30T07:39:48.142Z,74.17
2022-08-30T07:42:16.123Z,73.24
2022-08-30T07:44:43.889Z,71.09
2022-08-30T07:47:13.229Z,71.02
2022-08-30T07:49:40.977Z,70.79
2022-08-30T07:52:08.900Z,70.63
2022-08-30T07:54:36.644Z,70.67
2022-08-30T07:57:04.425Z,71.51
2022-08-30T07:59:35.572Z,70.14
2022-08-30T08:02:04.388Z,68.89
2022-08-30T08:04:34.372Z,68.77
2022-08-30T08:07:02.262Z,69.90
2022-08-30T08:09:30.087Z,69.66
2022-08-30T08:11:58.230Z,68.41
2022-08-30T08:14:25.971Z,68.75
2022-08-30T08:16:53.747Z,69.10
2022-08-30T08:19:21.639Z,68.77
2022-08-30T08:22:15.253Z,69.03
2022-08-30T08:24:39.083Z,68.78
2022-08-30T08:27:07.213Z,66.50
2022-08-30T08:29:34.951Z,66.88
2022-08-30T08:32:02.757Z,66.27
2022-08-30T08:34:30.524Z,66.46
2022-08-30T08:36:59.625Z,65.75
2022-08-30T08:39:27.377Z,65.59
2022-08-30T08:42:06.626Z,64.61
2022-08-30T08:47:19.169Z,65.35
2022-08-30T08:49:51.234Z,64.42
2022-08-30T08:52:43.366Z,64.52
2022-08-30T08:55:13.602Z,65.05
2022-08-30T08:57:42.689Z,64.14
2022-08-30T09:00:13.933Z,64.26
2022-08-30T09:02:44.491Z,62.54
2022-08-30T09:05:15.660Z,62.91
2022-08-30T09:07:49.287Z,63.11
2022-08-30T09:10:23.018Z,61.26
2022-08-30T09:13:00.238Z,63.54
2022-08-30T09:15:32.985Z,62.17
2022-08-30T09:18:04.056Z,60.46
2022-08-30T09:20:34.329Z,61.21
2022-08-30T09:23:23.214Z,62.92
2022-08-30T09:25:53.597Z,61.61
2022-08-30T09:28:24.837Z,60.26
2022-08-30T09:31:03.769Z,60.81
2022-08-30T09:33:32.438Z,60.10
2022-08-30T09:36:20.023Z,60.34
2022-08-30T09:39:00.682Z,59.95
2022-08-30T09:41:35.438Z,59.72
2022-08-30T09:44:10.089Z,60.62
2022-08-30T09:46:46.289Z,59.19
2022-08-30T09:49:32.628Z,59.67
2022-08-30T09:52:17.985Z,60.58
2022-08-30T09:55:03.423Z,59.86
2022-08-30T09:57:38.903Z,59.16
2022-08-30T10:00:09.745Z,58.39
2022-08-30T10:03:08.966Z,57.66
2022-08-30T10:05:48.218Z,60.89
2022-08-30T10:08:26.277Z,59.56
2022-08-30T10:10:59.487Z,57.82
2022-08-30T10:13:47.800Z,56.77
2022-08-30T10:16:30.753Z,57.59
2022-08-30T10:19:06.694Z,56.08
2022-08-30T10:21:40.254Z,59.59
2022-08-30T10:24:11.766Z,58.69
2022-08-30T10:26:47.306Z,59.66
2022-08-30T10:29:21.687Z,57.61
2022-08-30T10:31:55.338Z,57.11
2022-08-30T10:34:28.811Z,57.94
2022-08-30T10:37:02.070Z,58.32
2022-08-30T10:39:35.082Z,57.58
2022-08-30T10:42:10.242Z,57.23
2022-08-30T10:44:44.327Z,57.16
2022-08-30T10:47:23.838Z,56.82
2022-08-30T10:49:58.513Z,56.83
2022-08-30T10:52:32.337Z,56.61
2022-08-30T10:55:03.521Z,56.70
2022-08-30T10:57:32.765Z,56.88
2022-08-30T11:00:06.205Z,56.49
2022-08-30T11:03:09.830Z,57.44
2022-08-30T11:06:00.661Z,56.07
2022-08-30T11:08:44.485Z,54.82
2022-08-30T11:11:22.384Z,53.98
2022-08-30T11:13:55.868Z,54.57
2022-08-30T11:16:36.949Z,55.21
2022-08-30T11:19:14.590Z,55.50
2022-08-30T11:21:44.388Z,56.37
2022-08-30T11:24:14.373Z,55.53
2022-08-30T11:26:54.611Z,55.19
2022-08-30T11:29:34.489Z,54.64
2022-08-30T11:32:42.041Z,54.70
2022-08-30T11:35:11.610Z,55.77
2022-08-30T11:41:42.659Z,55.51
2022-08-30T11:44:32.446Z,53.80
2022-08-30T11:47:02.268Z,55.06
2022-08-30T11:49:53.521Z,53.35
2022-08-30T11:52:59.504Z,53.34
2022-08-30T11:56:16.030Z,53.18
2022-08-30T11:59:24.920Z,53.90
2022-08-30T12:01:54.708Z,54.06
2022-08-30T12:04:45.031Z,53.32
2022-08-30T12:07:47.593Z,54.13
2022-08-30T12:10:24.353Z,51.80
2022-08-30T12:12:54.386Z,52.77
2022-08-30T12:15:44.527Z,51.53
2022-08-30T12:18:31.142Z,52.00
2022-08-30T12:21:05.363Z,52.86
2022-08-30T12:23:44.664Z,51.90
2022-08-30T12:26:20.411Z,51.80
2022-08-30T12:28:51.041Z,51.78
2022-08-30T12:31:22.507Z,51.28
2022-08-30T12:33:55.523Z,49.48
2022-08-30T12:36:39.565Z,50.27
2022-08-30T12:39:10.122Z,51.14
2022-08-30T12:41:43.556Z,49.68
2022-08-30T12:44:16.291Z,51.22
2022-08-30T12:46:49.137Z,50.16
2022-08-30T12:49:21.138Z,49.47
2022-08-30T12:51:49.049Z,49.55
2022-08-30T12:54:20.684Z,48.77
2022-08-30T12:56:57.209Z,48.63
2022-08-30T12:59:57.940Z,48.78
2022-08-30T13:02:29.879Z,48.92
2022-08-30T13:04:59.339Z,48.40
2022-08-30T13:07:36.957Z,47.72
2022-08-30T13:10:19.439Z,48.19
2022-08-30T13:13:00.817Z,48.96
2022-08-30T13:15:33.224Z,47.93
2022-08-30T13:18:21.634Z,45.87
2022-08-30T13:21:30.121Z,47.32
2022-08-30T13:24:01.691Z,47.47
2022-08-30T13:26:32.380Z,46.60
2022-08-30T13:29:02.143Z,46.09
2022-08-30T13:31:31.843Z,47.49
2022-08-30T13:34:02.163Z,47.83
2022-08-30T13:36:33.135Z,47.56
2022-08-30T13:39:04.557Z,47.22
2022-08-30T13:41:34.126Z,46.78
2022-08-30T13:44:13.163Z,46.98
2022-08-30T13:46:44.471Z,46.62
2022-08-30T13:52:20.408Z,46.22
2022-08-30T13:54:51.133Z,46.45
2022-08-30T14:00:14.518Z,46.09
2022-08-30T14:02:45.296Z,47.32
2022-08-30T14:05:46.967Z,47.18
2022-08-30T14:08:05.405Z,46.25
2022-08-30T14:10:46.479Z,45.71
2022-08-30T14:13:14.841Z,46.76
2022-08-30T14:15:42.646Z,44.99
2022-08-30T14:18:13.502Z,45.95
2022-08-30T14:20:43.931Z,46.68
2022-08-30T14:23:12.741Z,47.01
2022-08-30T14:25:41.885Z,46.54
2022-08-30T14:28:10.039Z,45.31
2022-08-30T14:30:39.030Z,46.33
2022-08-30T14:33:07.201Z,45.96
2022-08-30T14:35:36.877Z,46.70
2022-08-30T14:38:06.962Z,46.05
2022-08-30T14:40:39.118Z,45.58
2022-08-30T14:43:08.325Z,45.49
2022-08-30T14:45:38.117Z,45.97
2022-08-30T14:48:11.256Z,46.42
2022-08-30T14:50:40.129Z,46.37
2022-08-30T14:53:07.997Z,46.76
2022-08-30T14:55:36.886Z,47.00
2022-08-30T14:58:06.820Z,46.80
2022-08-30T15:00:35.981Z,46.63
2022-08-30T15:03:03.783Z,46.35
2022-08-30T15:05:31.849Z,46.60
2022-08-30T15:08:00.586Z,47.03
2022-08-30T15:10:28.460Z,47.79
2022-08-30T15:12:56.193Z,47.67
2022-08-30T15:15:24.321Z,46.76
2022-08-30T15:17:53.459Z,47.77
2022-08-30T15:20:21.322Z,47.46
2022-08-30T15:22:49.501Z,46.47
2022-08-30T15:25:17.722Z,46.89
2022-08-30T15:27:45.914Z,47.53
2022-08-30T15:30:17.421Z,47.38
2022-08-30T15:32:48.599Z,46.68
2022-08-30T15:35:18.400Z,46.89
2022-08-30T15:37:46.602Z,45.92
2022-08-30T15:40:14.877Z,46.96
2022-08-30T15:42:43.093Z,46.19
2022-08-30T15:45:12.213Z,46.68
2022-08-30T15:47:40.398Z,47.41
2022-08-30T15:50:09.405Z,47.00
2022-08-30T15:52:39.710Z,47.44
2022-08-30T15:55:09.632Z,47.33
2022-08-30T15:57:38.589Z,47.45
2022-08-30T16:00:08.754Z,48.27
2022-08-30T16:02:37.132Z,48.71
2022-08-30T16:05:08.307Z,49.21
2022-08-30T16:07:40.657Z,48.66
2022-08-30T16:10:11.549Z,48.98
2022-08-30T16:12:40.940Z,47.72
2022-08-30T16:15:10.444Z,47.60
2022-08-30T16:17:39.714Z,48.36
2022-08-30T16:20:09.933Z,48.15
2022-08-30T16:22:40.142Z,47.93
2022-08-30T16:25:16.485Z,48.37
2022-08-30T16:27:44.681Z,48.28
2022-08-30T16:30:14.537Z,48.15
2022-08-30T16:32:43.462Z,48.20
2022-08-30T16:35:12.327Z,47.96
2022-08-30T16:37:40.522Z,47.19
2022-08-30T16:40:11.328Z,48.41
2022-08-30T16:42:40.981Z,48.34
2022-08-30T16:45:10.459Z,48.11
2022-08-30T16:47:39.602Z,48.06
2022-08-30T16:50:08.921Z,48.43
2022-08-30T16:52:41.245Z,48.63
2022-08-30T16:55:12.382Z,48.06
2022-08-30T16:57:42.597Z,48.42
2022-08-30T17:00:13.690Z,49.21
2022-08-30T17:02:42.826Z,49.15
2022-08-30T17:05:22.006Z,49.43
2022-08-30T17:07:51.848Z,49.57
2022-08-30T17:10:23.110Z,49.60
2022-08-30T17:12:53.053Z,49.85
2022-08-30T17:15:21.615Z,50.23
2022-08-30T17:17:50.603Z,49.63
2022-08-30T17:20:21.050Z,50.27
2022-08-30T17:22:49.685Z,49.66
2022-08-30T17:25:18.910Z,50.14
2022-08-30T17:27:48.154Z,50.65
2022-08-30T17:30:17.804Z,50.60
2022-08-30T17:32:46.758Z,51.13
2022-08-30T17:35:17.446Z,51.08
2022-08-30T17:37:45.619Z,51.18
2022-08-30T17:40:14.952Z,51.59
2022-08-30T17:42:44.718Z,51.32
2022-08-30T17:45:15.833Z,51.54
2022-08-30T17:47:45.597Z,52.23
2022-08-30T17:50:15.572Z,52.23
2022-08-30T17:52:47.889Z,52.43
2022-08-30T17:55:16.040Z,52.18
2022-08-30T17:57:45.873Z,52.64
2022-08-30T18:00:15.710Z,52.94
2022-08-30T18:02:45.591Z,52.98
2022-08-30T18:05:14.170Z,52.74
2022-08-30T18:07:42.372Z,52.93
2022-08-30T18:10:10.603Z,53.59
2022-08-30T18:12:38.798Z,53.27
2022-08-30T18:15:12.195Z,53.59
2022-08-30T18:17:41.340Z,54.07
2022-08-30T18:20:12.556Z,53.60
2022-08-30T18:22:40.906Z,53.82
2022-08-30T18:25:10.393Z,53.70
2022-08-30T18:27:39.370Z,54.59
2022-08-30T18:30:11.643Z,54.63
2022-08-30T18:32:40.094Z,54.86
2022-08-30T18:35:11.399Z,55.91
2022-08-30T18:37:40.347Z,56.62
2022-08-30T18:40:09.926Z,56.05
2022-08-30T18:42:38.893Z,56.79
2022-08-30T18:45:14.539Z,56.76
2022-08-30T18:47:43.657Z,56.74
2022-08-30T18:50:13.294Z,56.79
2022-08-30T18:52:41.459Z,57.20
2022-08-30T18:55:13.367Z,57.65
2022-08-30T18:57:41.573Z,58.12
2022-08-30T19:00:11.898Z,58.44
2022-08-30T19:02:40.322Z,58.30
2022-08-30T19:05:13.437Z,58.65
2022-08-30T19:07:41.642Z,59.32
2022-08-30T19:10:12.409Z,59.65
2022-08-30T19:12:41.078Z,59.75
2022-08-30T19:15:11.711Z,59.99
2022-08-30T19:17:41.675Z,59.53
2022-08-30T19:20:11.408Z,59.62
2022-08-30T19:23:06.298Z,59.18
2022-08-30T19:25:29.323Z,57.79
2022-08-30T19:27:57.559Z,58.65
2022-08-30T19:30:29.870Z,58.44
2022-08-30T19:32:58.496Z,57.85
2022-08-30T19:35:30.045Z,57.90
2022-08-30T19:38:00.506Z,58.15
2022-08-30T19:40:30.216Z,57.98
2022-08-30T19:42:59.042Z,58.31
2022-08-30T19:45:27.448Z,58.47
2022-08-30T19:47:57.832Z,58.25
2022-08-30T19:50:26.054Z,58.40
2022-08-30T19:52:55.322Z,57.96
2022-08-30T19:55:29.878Z,58.34
2022-08-30T19:57:59.760Z,58.28
2022-08-30T20:00:31.093Z,58.01
2022-08-30T20:03:00.158Z,58.83
2022-08-30T20:05:30.769Z,59.70
2022-08-30T20:07:59.444Z,60.98
2022-08-30T20:10:29.148Z,60.43
2022-08-30T20:12:57.339Z,60.77
2022-08-30T20:15:26.426Z,60.76
2022-08-30T20:18:13.557Z,61.21
2022-08-30T20:20:49.492Z,60.66
2022-08-30T20:23:21.536Z,61.54
2022-08-30T20:25:53.254Z,60.44
2022-08-30T20:28:21.751Z,60.53
2022-08-30T20:30:50.303Z,60.83
2022-08-30T20:33:18.671Z,60.17
2022-08-30T20:35:49.275Z,60.58
2022-08-30T20:38:21.791Z,60.51
2022-08-30T20:40:53.609Z,60.36
2022-08-30T20:43:23.675Z,61.08
2022-08-30T20:45:52.358Z,61.38
2022-08-30T20:48:20.954Z,60.65
2022-08-30T20:50:49.309Z,61.54
2022-08-30T20:53:17.861Z,62.00
2022-08-30T20:55:48.529Z,61.34
2022-08-30T20:58:18.292Z,61.82
2022-08-30T21:00:51.608Z,61.33
2022-08-30T21:03:27.278Z,62.02
2022-08-30T21:05:57.118Z,62.43
2022-08-30T21:08:25.458Z,61.70
2022-08-30T21:10:54.621Z,62.18
2022-08-30T21:13:24.345Z,63.04
2022-08-30T21:15:53.279Z,62.84
2022-08-30T21:18:25.905Z,61.89
2022-08-30T21:20:54.090Z,62.41
2022-08-30T21:23:22.274Z,62.55
2022-08-30T21:25:50.596Z,62.88
2022-08-30T21:28:19.356Z,62.49
2022-08-30T21:30:49.114Z,63.77
2022-08-30T21:33:17.326Z,62.94
2022-08-30T21:36:02.794Z,63.67
2022-08-30T21:38:30.941Z,63.41
2022-08-30T21:40:59.109Z,63.43
2022-08-30T21:43:27.358Z,63.70
2022-08-30T21:45:56.982Z,63.06
2022-08-30T21:48:25.194Z,63.41
2022-08-30T21:50:55.343Z,63.98
2022-08-30T21:53:23.569Z,64.55
2022-08-30T21:55:51.775Z,64.62
2022-08-30T21:58:19.956Z,64.61
2022-08-30T22:00:48.724Z,64.25
2022-08-30T22:03:18.421Z,65.03
2022-08-30T22:05:53.258Z,64.01
2022-08-30T22:08:21.412Z,64.68
2022-08-30T22:10:49.604Z,64.82
2022-08-30T22:13:17.941Z,64.18
2022-08-30T22:15:46.290Z,65.28
2022-08-30T22:18:14.547Z,64.45
2022-08-30T22:20:45.177Z,65.90
2022-08-30T22:23:13.387Z,64.68
2022-08-30T22:25:47.486Z,66.00
2022-08-30T22:28:16.101Z,66.07
2022-08-30T22:30:44.640Z,66.22
2022-08-30T22:33:13.139Z,66.17
2022-08-30T22:35:41.478Z,66.01
2022-08-30T22:38:11.261Z,66.70
2022-08-30T22:40:45.503Z,66.75
2022-08-30T22:43:14.208Z,66.92
2022-08-30T22:45:42.656Z,67.51
2022-08-30T22:48:12.313Z,67.63
2022-08-30T22:50:40.519Z,67.97
2022-08-30T22:53:10.119Z,67.34
2022-08-30T22:55:41.203Z,68.93
2022-08-30T22:58:09.427Z,69.37
2022-08-30T23:00:39.959Z,69.83
2022-08-30T23:03:14.636Z,68.94
2022-08-30T23:05:43.008Z,68.90
2022-08-30T23:08:12.700Z,70.07
2022-08-30T23:10:40.901Z,71.18
2022-08-30T23:13:09.097Z,70.66
2022-08-30T23:15:37.354Z,71.10
2022-08-30T23:18:05.777Z,71.52
2022-08-30T23:20:34.525Z,70.98
2022-08-30T23:23:01.506Z,72.68
2022-08-30T23:25:52.204Z,72.35
2022-08-30T23:28:40.093Z,72.02
2022-08-30T23:31:31.010Z,71.38
2022-08-30T23:34:17.620Z,70.72
2022-08-30T23:37:03.296Z,71.64
2022-08-30T23:39:49.473Z,72.10
2022-08-30T23:42:36.337Z,74.00
2022-08-30T23:45:22.635Z,74.31
2022-08-30T23:48:08.187Z,73.99
2022-08-30T23:50:53.864Z,75.95
2022-08-30T23:53:39.513Z,75.34
2022-08-30T23:56:29.664Z,75.54
2022-08-30T23:59:16.444Z,74.50
